createdAt,value
2023-05-22T00:01:21.037Z,71.00
2023-05-22T00:03:21.021Z,71.00
2023-05-22T00:05:24.045Z,71.00
2023-05-22T00:07:23.863Z,72.00
2023-05-22T00:09:21.010Z,71.00
2023-05-22T00:11:21.043Z,71.00
2023-05-22T00:13:20.986Z,71.00
2023-05-22T00:15:20.976Z,71.00
2023-05-22T00:17:22.545Z,71.00
2023-05-22T00:19:21.054Z,71.00
2023-05-22T00:21:20.956Z,71.00
2023-05-22T00:23:21.036Z,71.00
2023-05-22T00:25:23.082Z,70.00
2023-05-22T00:27:21.002Z,70.00
2023-05-22T00:29:21.072Z,70.00
2023-05-22T00:31:21.099Z,70.00
2023-05-22T00:33:21.034Z,69.00
2023-05-22T00:35:20.952Z,69.00
2023-05-22T00:37:21.008Z,68.00
2023-05-22T00:39:21.112Z,68.00
2023-05-22T00:41:20.995Z,68.00
2023-05-22T00:43:21.051Z,68.00
2023-05-22T00:45:20.998Z,68.00
2023-05-22T00:47:24.687Z,68.00
2023-05-22T00:49:21.048Z,68.00
2023-05-22T00:51:21.101Z,68.00
2023-05-22T00:53:21.154Z,68.00
2023-05-22T00:55:21.050Z,68.00
2023-05-22T00:57:21.014Z,69.00
2023-05-22T00:59:21.033Z,69.00
2023-05-22T01:01:21.082Z,69.00
2023-05-22T01:03:21.346Z,70.00
2023-05-22T01:05:21.102Z,70.00
2023-05-22T01:07:21.007Z,70.00
2023-05-22T01:09:23.256Z,70.00
2023-05-22T01:11:21.027Z,71.00
2023-05-22T01:13:21.019Z,71.00
2023-05-22T01:15:21.015Z,72.00
2023-05-22T01:17:21.511Z,72.00
2023-05-22T01:19:21.057Z,71.00
2023-05-22T01:21:21.156Z,72.00
2023-05-22T01:23:21.068Z,72.00
2023-05-22T01:25:21.073Z,72.00
2023-05-22T01:27:21.125Z,72.00
2023-05-22T01:29:21.179Z,73.00
2023-05-22T01:31:21.067Z,73.00
2023-05-22T01:33:23.718Z,73.00
2023-05-22T01:35:21.184Z,73.00
2023-05-22T01:37:21.027Z,73.00
2023-05-22T01:39:21.046Z,74.00
2023-05-22T01:41:21.333Z,74.00
2023-05-22T01:43:21.032Z,74.00
2023-05-22T01:45:21.142Z,74.00
2023-05-22T01:47:21.096Z,73.00
2023-05-22T01:49:25.974Z,74.00
2023-05-22T01:52:21.251Z,74.00
2023-05-22T01:54:21.257Z,74.00
2023-05-22T01:56:21.094Z,73.00
2023-05-22T01:58:21.053Z,74.00
2023-05-22T02:00:21.041Z,74.00
2023-05-22T02:02:21.330Z,73.00
2023-05-22T02:04:21.231Z,74.00
2023-05-22T02:06:21.116Z,74.00
2023-05-22T02:08:21.102Z,74.00
2023-05-22T02:10:21.132Z,74.00
2023-05-22T02:12:21.121Z,74.00
2023-05-22T02:14:21.035Z,74.00
2023-05-22T02:16:21.280Z,74.00
2023-05-22T02:18:21.125Z,74.00
2023-05-22T02:20:23.952Z,74.00
2023-05-22T02:22:21.234Z,74.00
2023-05-22T02:24:21.032Z,74.00
2023-05-22T02:26:22.214Z,75.00
2023-05-22T02:28:21.030Z,75.00
2023-05-22T02:30:21.260Z,75.00
2023-05-22T02:32:21.162Z,75.00
2023-05-22T02:34:26.018Z,75.00
2023-05-22T02:36:21.102Z,75.00
2023-05-22T02:38:21.115Z,75.00
2023-05-22T02:40:21.051Z,75.00
2023-05-22T02:42:21.171Z,75.00
2023-05-22T02:44:26.048Z,75.00
2023-05-22T02:46:22.276Z,75.00
2023-05-22T02:48:21.090Z,75.00
2023-05-22T02:50:21.185Z,75.00
2023-05-22T02:52:21.051Z,75.00
2023-05-22T02:54:21.122Z,75.00
2023-05-22T02:56:21.134Z,75.00
2023-05-22T02:58:21.163Z,76.00
2023-05-22T03:00:21.054Z,76.00
2023-05-22T03:02:21.161Z,76.00
2023-05-22T03:04:21.053Z,76.00
2023-05-22T03:06:23.778Z,76.00
2023-05-22T03:08:21.062Z,77.00
2023-05-22T03:10:21.167Z,77.00
2023-05-22T03:12:23.172Z,77.00
2023-05-22T03:14:21.057Z,77.00
2023-05-22T03:16:21.174Z,77.00
2023-05-22T03:18:21.105Z,77.00
2023-05-22T03:20:21.413Z,77.00
2023-05-22T03:22:24.065Z,77.00
2023-05-22T03:24:21.097Z,77.00
2023-05-22T03:26:21.452Z,77.00
2023-05-22T03:28:21.178Z,77.00
2023-05-22T03:30:21.081Z,77.00
2023-05-22T03:32:21.242Z,77.00
2023-05-22T03:34:21.279Z,77.00
2023-05-22T03:36:21.333Z,77.00
2023-05-22T03:38:21.442Z,77.00
2023-05-22T03:40:21.092Z,77.00
2023-05-22T03:42:21.159Z,77.00
2023-05-22T03:44:21.192Z,77.00
2023-05-22T03:46:21.213Z,77.00
2023-05-22T03:48:21.168Z,77.00
2023-05-22T03:50:21.208Z,77.00
2023-05-22T03:52:21.234Z,77.00
2023-05-22T03:54:21.199Z,77.00
2023-05-22T03:56:21.129Z,77.00
2023-05-22T03:58:21.158Z,77.00
2023-05-22T04:00:21.152Z,77.00
2023-05-22T04:02:21.176Z,77.00
2023-05-22T04:04:21.114Z,77.00
2023-05-22T04:06:21.139Z,77.00
2023-05-22T04:08:21.163Z,77.00
2023-05-22T04:10:23.819Z,77.00
2023-05-22T04:12:21.141Z,77.00
2023-05-22T04:14:21.094Z,77.00
2023-05-22T04:16:21.177Z,77.00
2023-05-22T04:18:21.561Z,77.00
2023-05-22T04:20:21.247Z,77.00
2023-05-22T04:22:21.177Z,77.00
2023-05-22T04:24:24.084Z,77.00
2023-05-22T04:26:21.227Z,77.00
2023-05-22T04:28:21.199Z,77.00
2023-05-22T04:30:22.085Z,77.00
2023-05-22T04:32:21.169Z,77.00
2023-05-22T04:34:21.145Z,77.00
2023-05-22T04:36:21.266Z,77.00
2023-05-22T04:38:21.177Z,77.00
2023-05-22T04:40:23.797Z,77.00
2023-05-22T04:42:24.269Z,77.00
2023-05-22T04:44:21.241Z,77.00
2023-05-22T04:46:21.457Z,76.00
2023-05-22T04:48:21.313Z,76.00
2023-05-22T04:50:21.134Z,76.00
2023-05-22T04:54:21.221Z,76.00
2023-05-22T04:56:36.268Z,76.00
2023-05-22T05:00:44.029Z,76.00
2023-05-22T05:02:29.722Z,76.00
2023-05-22T05:04:29.572Z,76.00
2023-05-22T05:06:29.629Z,76.00
2023-05-22T05:08:29.596Z,76.00
2023-05-22T05:10:29.599Z,76.00
2023-05-22T05:12:29.571Z,76.00
2023-05-22T05:14:29.517Z,76.00
2023-05-22T05:16:29.649Z,76.00
2023-05-22T05:18:29.962Z,76.00
2023-05-22T05:20:30.220Z,76.00
2023-05-22T05:22:29.593Z,76.00
2023-05-22T05:24:29.637Z,76.00
2023-05-22T05:26:32.432Z,76.00
2023-05-22T05:28:29.601Z,76.00
2023-05-22T05:30:29.714Z,76.00
2023-05-22T05:32:29.667Z,76.00
2023-05-22T05:34:29.885Z,76.00
2023-05-22T05:36:29.694Z,76.00
2023-05-22T05:38:29.904Z,76.00
2023-05-22T05:40:29.646Z,76.00
2023-05-22T05:42:29.689Z,76.00
2023-05-22T05:44:29.608Z,76.00
2023-05-22T05:46:40.780Z,76.00
2023-05-22T05:48:32.554Z,77.00
2023-05-22T05:50:34.615Z,77.00
2023-05-22T05:52:29.596Z,77.00
2023-05-22T05:54:29.552Z,77.00
2023-05-22T05:56:29.558Z,77.00
2023-05-22T05:58:29.567Z,77.00
2023-05-22T06:00:35.602Z,77.00
2023-05-22T06:02:32.520Z,76.00
2023-05-22T06:04:32.588Z,76.00
2023-05-22T06:06:29.587Z,76.00
2023-05-22T06:09:29.574Z,76.00
2023-05-22T06:11:35.163Z,76.00
2023-05-22T06:13:32.762Z,75.00
2023-05-22T06:15:32.737Z,75.00
2023-05-22T06:16:38.883Z,75.00
2023-05-22T06:19:32.477Z,75.00
2023-05-22T06:20:37.381Z,75.00
2023-05-22T06:23:29.657Z,74.00
2023-05-22T06:25:35.636Z,74.00
2023-05-22T06:27:38.433Z,74.00
2023-05-22T06:28:35.575Z,74.00
2023-05-22T06:31:35.485Z,74.00
2023-05-22T06:33:32.467Z,74.00
2023-05-22T06:34:38.861Z,74.00
2023-05-22T06:37:29.601Z,74.00
2023-05-22T06:39:29.874Z,74.00
2023-05-22T06:41:43.959Z,74.00
2023-05-22T06:43:38.802Z,74.00
2023-05-22T06:45:29.781Z,74.00
2023-05-22T06:47:29.638Z,74.00
2023-05-22T06:49:35.510Z,73.00
2023-05-22T06:51:29.672Z,73.00
2023-05-22T06:53:35.337Z,73.00
2023-05-22T06:54:44.354Z,73.00
2023-05-22T06:57:35.703Z,73.00
2023-05-22T06:59:29.695Z,73.00
2023-05-22T07:01:38.756Z,72.00
2023-05-22T07:03:35.573Z,72.00
2023-05-22T07:05:29.768Z,72.00
2023-05-22T07:07:41.693Z,72.00
2023-05-22T07:09:29.818Z,72.00
2023-05-22T07:11:29.654Z,72.00
2023-05-22T07:13:29.776Z,71.00
2023-05-22T07:15:29.657Z,71.00
2023-05-22T07:17:29.680Z,71.00
2023-05-22T07:19:30.125Z,71.00
2023-05-22T07:21:32.768Z,70.00
2023-05-22T07:23:32.376Z,70.00
2023-05-22T07:25:35.279Z,70.00
2023-05-22T07:27:35.333Z,69.00
2023-05-22T07:29:29.600Z,69.00
2023-05-22T07:31:29.677Z,69.00
2023-05-22T07:33:29.709Z,69.00
2023-05-22T07:35:32.665Z,67.00
2023-05-22T07:37:32.254Z,65.00
2023-05-22T07:39:29.772Z,64.00
2023-05-22T07:41:29.667Z,61.00
2023-05-22T07:43:29.653Z,61.00
2023-05-22T07:45:35.621Z,61.00
2023-05-22T07:47:35.877Z,59.00
2023-05-22T07:49:32.379Z,59.00
2023-05-22T07:51:32.717Z,59.00
2023-05-22T07:53:30.681Z,57.00
2023-05-22T07:55:29.688Z,57.00
2023-05-22T07:57:29.781Z,57.00
2023-05-22T07:59:29.700Z,57.00
2023-05-22T08:01:29.827Z,57.00
2023-05-22T08:03:29.931Z,56.00
2023-05-22T08:05:29.828Z,56.00
2023-05-22T08:07:29.770Z,56.00
2023-05-22T08:09:35.591Z,54.00
2023-05-22T08:11:30.687Z,54.00
2023-05-22T08:13:30.006Z,54.00
2023-05-22T08:15:29.757Z,54.00
2023-05-22T08:17:29.763Z,54.00
2023-05-22T08:19:30.008Z,54.00
2023-05-22T08:21:32.524Z,55.00
2023-05-22T08:23:29.797Z,56.00
2023-05-22T08:25:41.776Z,57.00
2023-05-22T08:27:35.529Z,57.00
2023-05-22T08:29:29.815Z,57.00
2023-05-22T08:31:32.669Z,58.00
2023-05-22T08:33:29.705Z,56.00
2023-05-22T08:35:35.859Z,55.00
2023-05-22T08:37:32.782Z,56.00
2023-05-22T08:39:32.645Z,56.00
2023-05-22T08:41:44.000Z,54.00
2023-05-22T08:43:29.717Z,54.00
2023-05-22T08:45:32.696Z,57.00
2023-05-22T08:47:36.134Z,57.00
2023-05-22T08:49:32.663Z,57.00
2023-05-22T08:51:32.934Z,56.00
2023-05-22T08:53:29.747Z,56.00
2023-05-22T08:55:29.818Z,55.00
2023-05-22T08:57:29.814Z,55.00
2023-05-22T08:59:29.742Z,56.00
2023-05-22T09:01:35.855Z,53.00
2023-05-22T09:03:32.688Z,53.00
2023-05-22T09:05:32.585Z,53.00
2023-05-22T09:07:29.774Z,53.00
2023-05-22T09:09:29.780Z,53.00
2023-05-22T09:11:38.601Z,53.00
2023-05-22T09:13:29.696Z,53.00
2023-05-22T09:15:29.772Z,53.00
2023-05-22T09:17:29.877Z,53.00
2023-05-22T09:19:29.960Z,54.00
2023-05-22T09:21:30.674Z,53.00
2023-05-22T09:23:35.585Z,52.00
2023-05-22T09:25:34.724Z,52.00
2023-05-22T09:27:29.725Z,52.00
2023-05-22T09:29:29.721Z,54.00
2023-05-22T09:31:41.454Z,52.00
2023-05-22T09:33:29.814Z,52.00
2023-05-22T09:35:30.335Z,52.00
2023-05-22T09:37:38.431Z,52.00
2023-05-22T09:39:29.845Z,52.00
2023-05-22T09:41:29.765Z,52.00
2023-05-22T09:43:41.810Z,51.00
2023-05-22T09:45:29.718Z,51.00
2023-05-22T09:47:29.813Z,51.00
2023-05-22T09:49:35.370Z,50.00
2023-05-22T09:51:35.789Z,50.00
2023-05-22T09:53:29.880Z,50.00
2023-05-22T09:55:32.586Z,50.00
2023-05-22T09:57:39.063Z,51.00
2023-05-22T09:59:35.938Z,51.00
2023-05-22T10:01:38.637Z,50.00
2023-05-22T10:03:32.632Z,50.00
2023-05-22T10:05:38.813Z,51.00
2023-05-22T10:07:44.076Z,51.00
2023-05-22T10:10:32.907Z,50.00
2023-05-22T10:12:32.544Z,50.00
2023-05-22T10:13:38.685Z,50.00
2023-05-22T10:15:38.587Z,50.00
2023-05-22T10:18:33.171Z,50.00
2023-05-22T10:19:36.627Z,49.00
2023-05-22T10:22:29.806Z,49.00
2023-05-22T10:24:29.809Z,48.00
2023-05-22T10:26:30.144Z,48.00
2023-05-22T10:28:32.619Z,49.00
2023-05-22T10:30:42.528Z,51.00
2023-05-22T10:32:35.782Z,49.00
2023-05-22T10:34:32.803Z,49.00
2023-05-22T10:36:38.934Z,49.00
2023-05-22T10:38:32.757Z,50.00
2023-05-22T10:40:32.872Z,49.00
2023-05-22T10:46:12.412Z,48.00
2023-05-22T10:48:06.350Z,49.00
2023-05-22T10:50:03.388Z,49.00
2023-05-22T10:52:03.372Z,48.00
2023-05-22T10:54:06.173Z,48.00
2023-05-22T10:56:09.602Z,48.00
2023-05-22T10:58:05.042Z,48.00
2023-05-22T11:00:06.023Z,49.00
2023-05-22T11:02:03.462Z,48.00
2023-05-22T11:04:03.620Z,48.00
2023-05-22T11:06:03.350Z,49.00
2023-05-22T11:08:03.387Z,48.00
2023-05-22T11:10:06.293Z,48.00
2023-05-22T11:12:03.346Z,48.00
2023-05-22T11:14:15.305Z,48.00
2023-05-22T11:16:09.245Z,47.00
2023-05-22T11:18:18.425Z,45.00
2023-05-22T11:20:03.543Z,48.00
2023-05-22T11:22:03.340Z,48.00
2023-05-22T11:24:03.356Z,48.00
2023-05-22T11:26:08.274Z,48.00
2023-05-22T11:28:03.390Z,47.00
2023-05-22T11:30:03.576Z,48.00
2023-05-22T11:32:03.444Z,48.00
2023-05-22T11:34:03.513Z,48.00
2023-05-22T11:36:17.635Z,48.00
2023-05-22T11:38:03.382Z,48.00
2023-05-22T11:40:03.493Z,48.00
2023-05-22T11:42:03.406Z,48.00
2023-05-22T11:44:03.498Z,48.00
2023-05-22T11:46:18.296Z,48.00
2023-05-22T11:48:17.728Z,51.00
2023-05-22T11:50:03.383Z,51.00
2023-05-22T11:52:03.513Z,48.00
2023-05-22T11:54:06.011Z,47.00
2023-05-22T11:56:09.622Z,47.00
2023-05-22T11:58:03.409Z,46.00
2023-05-22T12:00:03.642Z,46.00
2023-05-22T12:02:06.261Z,48.00
2023-05-22T12:04:06.364Z,46.00
2023-05-22T12:06:03.485Z,47.00
2023-05-22T12:08:06.207Z,45.00
2023-05-22T12:10:17.649Z,45.00
2023-05-22T12:12:06.580Z,46.00
2023-05-22T12:14:04.488Z,46.00
2023-05-22T12:18:06.494Z,45.00
2023-05-22T12:20:06.492Z,45.00
2023-05-22T12:23:03.394Z,47.00
2023-05-22T12:25:04.162Z,49.00
2023-05-22T12:27:06.322Z,49.00
2023-05-22T12:29:03.368Z,47.00
2023-05-22T12:31:03.550Z,47.00
2023-05-22T12:33:03.573Z,47.00
2023-05-22T12:34:09.480Z,46.00
2023-05-22T12:37:06.586Z,48.00
2023-05-22T12:38:15.530Z,48.00
2023-05-22T12:41:03.436Z,48.00
2023-05-22T12:43:03.489Z,48.00
2023-05-22T12:44:17.709Z,46.00
2023-05-22T12:47:03.761Z,47.00
2023-05-22T12:49:03.616Z,49.00
2023-05-22T12:51:06.352Z,49.00
2023-05-22T12:53:03.526Z,47.00
2023-05-22T12:55:03.742Z,47.00
2023-05-22T12:57:03.413Z,47.00
2023-05-22T12:58:17.715Z,47.00
2023-05-22T13:01:03.359Z,47.00
2023-05-22T13:03:03.449Z,47.00
2023-05-22T13:05:03.441Z,47.00
2023-05-22T13:07:07.654Z,46.00
2023-05-22T13:09:03.678Z,47.00
2023-05-22T13:11:03.461Z,47.00
2023-05-22T13:13:12.237Z,47.00
2023-05-22T13:15:03.584Z,47.00
2023-05-22T13:17:06.451Z,46.00
2023-05-22T13:19:06.233Z,46.00
2023-05-22T13:21:12.761Z,46.00
2023-05-22T13:23:03.613Z,46.00
2023-05-22T13:25:03.535Z,44.00
2023-05-22T13:27:03.586Z,44.00
2023-05-22T13:29:03.449Z,44.00
2023-05-22T13:31:03.600Z,45.00
2023-05-22T13:33:03.616Z,43.00
2023-05-22T13:35:03.473Z,44.00
2023-05-22T13:37:03.562Z,44.00
2023-05-22T13:39:03.459Z,44.00
2023-05-22T13:41:09.696Z,45.00
2023-05-22T13:43:03.507Z,46.00
2023-05-22T13:45:03.633Z,47.00
2023-05-22T13:47:03.514Z,47.00
2023-05-22T13:49:03.489Z,47.00
2023-05-22T13:51:03.563Z,48.00
2023-05-22T13:53:03.452Z,49.00
2023-05-22T13:55:03.546Z,48.00
2023-05-22T13:57:03.522Z,48.00
2023-05-22T13:59:09.638Z,48.00
2023-05-22T14:01:17.832Z,47.00
2023-05-22T14:03:06.296Z,48.00
2023-05-22T14:05:06.547Z,48.00
2023-05-22T14:07:03.548Z,48.00
2023-05-22T14:09:17.943Z,49.00
2023-05-22T14:11:11.388Z,50.00
2023-05-22T14:13:03.468Z,50.00
2023-05-22T14:15:03.629Z,51.00
2023-05-22T14:17:03.957Z,51.00
2023-05-22T14:19:03.500Z,51.00
2023-05-22T14:21:15.601Z,51.00
2023-05-22T14:23:06.500Z,52.00
2023-05-22T14:25:05.209Z,52.00
2023-05-22T14:27:03.512Z,53.00
2023-05-22T14:29:03.492Z,53.00
2023-05-22T14:31:03.549Z,53.00
2023-05-22T14:33:03.756Z,53.00
2023-05-22T14:35:12.421Z,53.00
2023-05-22T14:37:12.700Z,54.00
2023-05-22T14:39:12.466Z,54.00
2023-05-22T14:41:03.801Z,55.00
2023-05-22T14:43:04.523Z,56.00
2023-05-22T14:45:09.574Z,56.00
2023-05-22T14:47:06.493Z,57.00
2023-05-22T14:49:03.511Z,58.00
2023-05-22T14:51:03.555Z,58.00
2023-05-22T14:53:06.627Z,58.00
2023-05-22T14:55:17.985Z,57.00
2023-05-22T14:57:15.666Z,58.00
2023-05-22T14:59:03.550Z,58.00
2023-05-22T15:01:03.618Z,56.00
2023-05-22T15:03:06.328Z,56.00
2023-05-22T15:05:03.574Z,57.00
2023-05-22T15:07:03.467Z,57.00
2023-05-22T15:09:12.337Z,57.00
2023-05-22T15:11:03.796Z,57.00
2023-05-22T15:13:03.772Z,57.00
2023-05-22T15:15:12.836Z,57.00
2023-05-22T15:17:03.625Z,58.00
2023-05-22T15:19:03.573Z,58.00
2023-05-22T15:21:03.650Z,59.00
2023-05-22T15:23:03.527Z,59.00
2023-05-22T15:25:03.643Z,59.00
2023-05-22T15:27:03.755Z,59.00
2023-05-22T15:29:03.716Z,59.00
2023-05-22T15:31:03.571Z,59.00
2023-05-22T15:33:03.802Z,59.00
2023-05-22T15:35:06.430Z,59.00
2023-05-22T15:37:03.700Z,59.00
2023-05-22T15:39:03.639Z,59.00
2023-05-22T15:41:17.936Z,59.00
2023-05-22T15:43:09.550Z,59.00
2023-05-22T15:45:03.590Z,60.00
2023-05-22T15:47:06.181Z,60.00
2023-05-22T15:49:15.497Z,60.00
2023-05-22T15:51:03.645Z,60.00
2023-05-22T15:53:03.606Z,58.00
2023-05-22T15:55:06.619Z,57.00
2023-05-22T15:57:03.692Z,55.00
2023-05-22T15:59:03.613Z,55.00
2023-05-22T16:01:03.703Z,55.00
2023-05-22T16:03:03.757Z,56.00
2023-05-22T16:05:03.642Z,55.00
2023-05-22T16:07:03.589Z,56.00
2023-05-22T16:09:03.566Z,56.00
2023-05-22T16:11:03.700Z,57.00
2023-05-22T16:13:06.642Z,57.00
2023-05-22T16:15:07.116Z,57.00
2023-05-22T16:18:09.316Z,57.00
2023-05-22T16:19:06.449Z,57.00
2023-05-22T16:22:03.727Z,57.00
2023-05-22T16:24:03.739Z,57.00
2023-05-22T16:26:09.638Z,58.00
2023-05-22T16:29:33.371Z,59.00
2023-05-22T16:31:34.081Z,58.00
2023-05-22T16:33:33.376Z,58.00
2023-05-22T16:35:33.388Z,57.00
2023-05-22T16:37:33.516Z,57.00
2023-05-22T16:39:33.459Z,57.00
2023-05-22T16:41:33.585Z,59.00
2023-05-22T16:43:33.547Z,59.00
2023-05-22T16:45:09.159Z,60.00
2023-05-22T16:46:43.016Z,60.00
2023-05-22T16:48:42.891Z,59.00
2023-05-22T16:50:42.840Z,60.00
2023-05-22T16:52:42.901Z,60.00
2023-05-22T16:54:42.902Z,60.00
2023-05-22T16:56:45.776Z,61.00
2023-05-22T16:58:42.997Z,61.00
2023-05-22T17:00:48.735Z,61.00
2023-05-22T17:02:43.041Z,61.00
2023-05-22T17:04:43.432Z,60.00
2023-05-22T17:06:42.847Z,60.00
2023-05-22T17:08:43.111Z,60.00
2023-05-22T17:10:42.899Z,60.00
2023-05-22T17:12:42.812Z,60.00
2023-05-22T17:14:42.801Z,60.00
2023-05-22T17:16:43.048Z,60.00
2023-05-22T17:18:42.957Z,60.00
2023-05-22T17:20:43.074Z,60.00
2023-05-22T17:22:42.927Z,60.00
2023-05-22T17:24:42.964Z,60.00
2023-05-22T17:26:42.853Z,61.00
2023-05-22T17:28:42.929Z,61.00
2023-05-22T17:30:43.301Z,61.00
2023-05-22T17:32:43.131Z,61.00
2023-05-22T17:34:48.464Z,61.00
2023-05-22T17:36:47.792Z,61.00
2023-05-22T17:38:42.848Z,61.00
2023-05-22T17:40:45.738Z,61.00
2023-05-22T17:42:44.630Z,61.00
2023-05-22T17:44:42.864Z,61.00
2023-05-22T17:46:42.945Z,61.00
2023-05-22T17:48:43.036Z,61.00
2023-05-22T17:50:42.928Z,61.00
2023-05-22T17:52:42.997Z,61.00
2023-05-22T17:54:42.906Z,61.00
2023-05-22T17:56:42.830Z,61.00
2023-05-22T17:58:45.763Z,61.00
2023-05-22T18:00:42.891Z,61.00
2023-05-22T18:02:43.015Z,61.00
2023-05-22T18:04:42.939Z,62.00
2023-05-22T18:06:42.944Z,62.00
2023-05-22T18:08:42.877Z,63.00
2023-05-22T18:10:43.090Z,63.00
2023-05-22T18:12:42.880Z,65.00
2023-05-22T18:14:42.918Z,65.00
2023-05-22T18:16:42.825Z,65.00
2023-05-22T18:18:45.587Z,66.00
2023-05-22T18:20:42.941Z,66.00
2023-05-22T18:22:42.938Z,66.00
2023-05-22T18:24:42.925Z,67.00
2023-05-22T18:26:52.073Z,68.00
2023-05-22T18:28:47.768Z,68.00
2023-05-22T18:30:43.274Z,68.00
2023-05-22T18:32:42.957Z,69.00
2023-05-22T18:34:42.880Z,69.00
2023-05-22T18:36:44.166Z,69.00
2023-05-22T18:38:42.887Z,69.00
2023-05-22T18:40:43.042Z,69.00
2023-05-22T18:42:45.769Z,69.00
2023-05-22T18:44:48.203Z,68.00
2023-05-22T18:46:42.925Z,68.00
2023-05-22T18:48:42.909Z,68.00
2023-05-22T18:50:43.084Z,68.00
2023-05-22T18:52:44.561Z,68.00
2023-05-22T18:54:42.887Z,68.00
2023-05-22T18:56:42.865Z,68.00
2023-05-22T18:58:43.019Z,68.00
2023-05-22T19:00:43.153Z,68.00
2023-05-22T19:02:43.056Z,68.00
2023-05-22T19:04:43.246Z,68.00
2023-05-22T19:06:42.948Z,68.00
2023-05-22T19:09:42.944Z,68.00
2023-05-22T19:10:45.599Z,69.00
2023-05-22T19:13:42.916Z,69.00
2023-05-22T19:15:45.791Z,70.00
2023-05-22T19:16:52.176Z,70.00
2023-05-22T19:19:42.914Z,70.00
2023-05-22T19:21:42.876Z,71.00
2023-05-22T19:23:42.974Z,71.00
2023-05-22T19:25:42.978Z,71.00
2023-05-22T19:27:42.911Z,71.00
2023-05-22T19:29:42.890Z,71.00
2023-05-22T19:31:42.902Z,71.00
2023-05-22T19:33:42.917Z,72.00
2023-05-22T19:35:43.132Z,72.00
2023-05-22T19:37:42.923Z,72.00
2023-05-22T19:39:42.978Z,72.00
2023-05-22T19:41:42.884Z,72.00
2023-05-22T19:43:45.798Z,72.00
2023-05-22T19:45:42.993Z,72.00
2023-05-22T19:47:45.989Z,72.00
2023-05-22T19:49:43.094Z,72.00
2023-05-22T19:51:43.038Z,72.00
2023-05-22T19:53:43.072Z,72.00
2023-05-22T19:55:45.737Z,72.00
2023-05-22T19:57:42.933Z,72.00
2023-05-22T19:59:42.918Z,73.00
2023-05-22T20:01:43.009Z,73.00
2023-05-22T20:03:43.050Z,73.00
2023-05-22T20:05:42.943Z,73.00
2023-05-22T20:07:43.067Z,73.00
2023-05-22T20:09:42.980Z,74.00
2023-05-22T20:11:42.995Z,74.00
2023-05-22T20:13:43.138Z,74.00
2023-05-22T20:15:43.227Z,74.00
2023-05-22T20:17:45.930Z,74.00
2023-05-22T20:19:43.097Z,74.00
2023-05-22T20:21:43.037Z,74.00
2023-05-22T20:23:43.022Z,74.00
2023-05-22T20:25:49.284Z,75.00
2023-05-22T20:27:42.958Z,75.00
2023-05-22T20:29:44.697Z,75.00
2023-05-22T20:31:43.015Z,75.00
2023-05-22T20:33:42.988Z,75.00
2023-05-22T20:35:43.220Z,75.00
2023-05-22T20:37:46.105Z,75.00
2023-05-22T20:39:42.972Z,75.00
2023-05-22T20:41:42.952Z,75.00
2023-05-22T20:43:42.958Z,75.00
2023-05-22T20:45:43.152Z,75.00
2023-05-22T20:47:54.886Z,75.00
2023-05-22T20:49:42.960Z,75.00
2023-05-22T20:51:43.096Z,75.00
2023-05-22T20:53:43.512Z,75.00
2023-05-22T20:55:45.594Z,75.00
2023-05-22T20:57:43.073Z,75.00
2023-05-22T20:59:54.931Z,75.00
2023-05-22T21:01:43.092Z,75.00
2023-05-22T21:03:42.995Z,75.00
2023-05-22T21:05:45.073Z,75.00
2023-05-22T21:07:43.075Z,76.00
2023-05-22T21:09:42.991Z,76.00
2023-05-22T21:11:43.092Z,76.00
2023-05-22T21:13:42.962Z,76.00
2023-05-22T21:15:43.066Z,76.00
2023-05-22T21:17:43.125Z,76.00
2023-05-22T21:19:43.120Z,76.00
2023-05-22T21:21:42.959Z,76.00
2023-05-22T21:23:43.003Z,76.00
2023-05-22T21:25:43.155Z,76.00
2023-05-22T21:27:43.174Z,76.00
2023-05-22T21:29:43.046Z,76.00
2023-05-22T21:31:45.630Z,76.00
2023-05-22T21:33:43.034Z,76.00
2023-05-22T21:35:43.041Z,76.00
2023-05-22T21:37:42.989Z,76.00
2023-05-22T21:39:43.026Z,76.00
2023-05-22T21:41:43.301Z,77.00
2023-05-22T21:43:43.199Z,77.00
2023-05-22T21:45:42.969Z,77.00
2023-05-22T21:47:43.188Z,77.00
2023-05-22T21:49:43.005Z,77.00
2023-05-22T21:51:46.117Z,77.00
2023-05-22T21:53:42.998Z,78.00
2023-05-22T21:55:42.982Z,78.00
2023-05-22T21:57:43.084Z,78.00
2023-05-22T21:59:43.137Z,78.00
2023-05-22T22:01:54.845Z,78.00
2023-05-22T22:03:43.307Z,78.00
2023-05-22T22:05:45.711Z,78.00
2023-05-22T22:07:43.208Z,78.00
2023-05-22T22:09:42.988Z,78.00
2023-05-22T22:11:43.047Z,78.00
2023-05-22T22:13:44.678Z,78.00
2023-05-22T22:15:42.984Z,78.00
2023-05-22T22:17:43.079Z,78.00
2023-05-22T22:19:43.024Z,78.00
2023-05-22T22:21:43.513Z,78.00
2023-05-22T22:23:43.204Z,78.00
2023-05-22T22:25:43.099Z,78.00
2023-05-22T22:27:43.037Z,78.00
2023-05-22T22:29:43.083Z,78.00
2023-05-22T22:31:43.118Z,78.00
2023-05-22T22:33:43.050Z,78.00
2023-05-22T22:35:43.071Z,78.00
2023-05-22T22:37:43.029Z,78.00
2023-05-22T22:39:43.101Z,78.00
2023-05-22T22:41:43.036Z,78.00
2023-05-22T22:43:43.306Z,78.00
2023-05-22T22:45:43.371Z,78.00
2023-05-22T22:47:43.292Z,78.00
2023-05-22T22:49:43.065Z,78.00
2023-05-22T22:51:43.151Z,79.00
2023-05-22T22:55:55.452Z,79.00
2023-05-22T22:57:55.517Z,79.00
2023-05-22T22:59:55.514Z,79.00
2023-05-22T23:01:55.631Z,79.00
2023-05-22T23:03:55.692Z,79.00
2023-05-22T23:05:55.494Z,79.00
2023-05-22T23:07:55.490Z,79.00
2023-05-22T23:09:55.530Z,79.00
2023-05-22T23:11:55.458Z,79.00
2023-05-22T23:13:55.573Z,80.00
2023-05-22T23:15:55.492Z,80.00
2023-05-22T23:17:55.760Z,80.00
2023-05-22T23:19:55.497Z,80.00
2023-05-22T23:21:55.425Z,80.00
2023-05-22T23:23:58.253Z,80.00
2023-05-22T23:25:58.046Z,80.00
2023-05-22T23:27:55.494Z,80.00
2023-05-22T23:29:55.485Z,80.00
2023-05-22T23:31:55.621Z,80.00
2023-05-22T23:33:55.487Z,80.00
2023-05-22T23:35:55.482Z,80.00
2023-05-22T23:37:55.493Z,80.00
2023-05-22T23:39:56.553Z,80.00
2023-05-22T23:41:55.541Z,80.00
2023-05-22T23:44:55.574Z,80.00
2023-05-22T23:46:55.626Z,80.00
2023-05-22T23:48:55.528Z,80.00
2023-05-22T23:50:57.290Z,80.00
2023-05-22T23:52:55.515Z,80.00
2023-05-22T23:54:55.899Z,80.00
2023-05-22T23:56:55.482Z,80.00
2023-05-22T23:58:55.534Z,80.00
